Time;durP1;ratioP1;P1;durP2;ratioP2;P2;SDS_P1;SDS_P2;PMS_P1;PMS_P2;Temp;Humidity;BMP_temperature;BMP_pressure;BME280_temperature;BME280_humidity;BME280_pressure;Samples;Min_cycle;Max_cycle;Signal;HPM_P1;HPM_P2
2023/03/23 00:00:05;;;;;;;6.85;3.85;;;;;;;11.88;76.65;100170.72;5072519;28;20769;-70
2023/03/23 00:02:35;;;;;;;7.40;3.80;;;;;;;11.87;76.08;100175.44;5055917;28;20175;-69
2023/03/23 00:05:03;;;;;;;5.13;3.42;;;;;;;11.89;76.44;100178.78;5059015;28;20099;-68
2023/03/23 00:07:32;;;;;;;5.75;3.63;;;;;;;11.90;76.58;100162.91;5065418;28;20047;-68
2023/03/23 00:09:58;;;;;;;5.55;3.38;;;;;;;11.91;76.09;100153.50;5063672;28;20028;-69
2023/03/23 00:12:32;;;;;;;6.32;3.45;;;;;;;11.93;76.43;100151.25;5070928;28;20145;-69
2023/03/23 00:15:00;;;;;;;4.13;3.33;;;;;;;11.94;75.87;100164.03;5072431;28;20495;-68
2023/03/23 00:17:25;;;;;;;5.78;3.70;;;;;;;11.94;76.38;100186.28;5067789;28;20041;-68
2023/03/23 00:19:51;;;;;;;7.70;3.40;;;;;;;11.93;76.10;100182.66;5055025;28;20044;-69
2023/03/23 00:22:19;;;;;;;6.80;3.70;;;;;;;11.97;76.54;100164.31;5068210;28;20039;-68
2023/03/23 00:24:44;;;;;;;6.68;3.40;;;;;;;11.96;76.40;100154.31;5065182;28;20081;-69
2023/03/23 00:27:12;;;;;;;4.95;3.60;;;;;;;11.97;76.28;100158.75;5072851;28;20024;-69
2023/03/23 00:29:40;;;;;;;8.40;3.83;;;;;;;11.95;75.83;100169.34;5072092;28;20464;-70
2023/03/23 00:32:06;;;;;;;7.22;3.88;;;;;;;11.94;76.12;100175.97;5069997;28;20028;-69
2023/03/23 00:34:32;;;;;;;5.55;3.35;;;;;;;11.96;75.95;100171.00;5070580;28;20029;-68
2023/03/23 00:36:58;;;;;;;4.00;3.70;;;;;;;11.94;76.34;100177.94;5069078;28;20036;-69
2023/03/23 00:39:26;;;;;;;5.45;3.97;;;;;;;11.96;76.11;100175.72;5056737;28;20040;-69
2023/03/23 00:41:52;;;;;;;6.18;3.38;;;;;;;11.95;76.37;100169.34;5052252;28;20028;-69
2023/03/23 00:44:18;;;;;;;8.02;3.67;;;;;;;11.96;76.28;100168.22;5051812;28;20033;-70
2023/03/23 00:46:48;;;;;;;5.78;3.75;;;;;;;11.95;76.41;100165.72;5064487;28;20024;-69
2023/03/23 00:49:17;;;;;;;6.53;4.22;;;;;;;11.98;76.54;100163.19;5071469;28;20035;-69
2023/03/23 00:51:43;;;;;;;7.55;4.15;;;;;;;11.97;76.31;100155.13;5070805;28;20043;-68
2023/03/23 00:54:09;;;;;;;4.55;3.55;;;;;;;11.97;76.73;100158.75;5056745;28;20032;-68
2023/03/23 00:56:35;;;;;;;5.50;3.97;;;;;;;11.97;77.17;100147.63;5071405;28;20041;-69
2023/03/23 00:59:01;;;;;;;5.55;4.30;;;;;;;11.98;77.49;100163.19;5068859;28;20081;-69
2023/03/23 01:01:27;;;;;;;7.72;3.72;;;;;;;11.99;77.08;100152.91;5067644;28;20115;-69
2023/03/23 01:04:00;;;;;;;7.13;4.07;;;;;;;12.01;77.47;100132.03;5069364;28;20028;-68
2023/03/23 01:06:27;;;;;;;5.63;4.20;;;;;;;12.01;77.42;100123.69;5070938;28;20032;-69
2023/03/23 01:08:53;;;;;;;5.95;3.92;;;;;;;12.01;77.68;100131.22;5067528;28;20054;-69
2023/03/23 01:11:19;;;;;;;7.47;3.80;;;;;;;12.01;77.70;100139.56;5067083;28;20133;-69
2023/03/23 01:13:45;;;;;;;5.20;3.88;;;;;;;11.97;77.70;100125.38;5063601;28;20056;-69
2023/03/23 01:16:11;;;;;;;6.28;3.75;;;;;;;11.96;77.50;100107.03;5051204;28;20649;-69
2023/03/23 01:18:37;;;;;;;5.10;4.18;;;;;;;11.97;77.58;100097.56;5053817;28;20575;-69
2023/03/23 01:21:08;;;;;;;5.32;3.92;;;;;;;11.98;77.14;100104.78;5067954;28;20032;-69
2023/03/23 01:23:34;;;;;;;6.35;4.32;;;;;;;11.93;77.20;100103.97;5063240;28;20024;-69
2023/03/23 01:26:08;;;;;;;6.50;4.47;;;;;;;11.91;77.48;100111.78;5071297;28;20032;-68
2023/03/23 01:28:35;;;;;;;6.60;3.85;;;;;;;11.94;77.26;100098.13;5070613;28;20020;-69
2023/03/23 01:31:05;;;;;;;7.90;4.20;;;;;;;11.95;77.31;100097.03;5067432;28;20046;-68
2023/03/23 01:33:31;;;;;;;5.35;3.90;;;;;;;11.98;77.15;100102.00;5069586;28;20040;-70
2023/03/23 01:35:57;;;;;;;5.13;4.10;;;;;;;11.99;77.32;100102.84;5067536;28;20024;-69
2023/03/23 01:38:23;;;;;;;4.75;3.83;;;;;;;11.98;77.19;100095.59;5067553;28;20398;-69
2023/03/23 01:40:48;;;;;;;5.35;3.97;;;;;;;11.98;77.17;100099.22;5066586;28;20044;-70
2023/03/23 01:43:15;;;;;;;5.07;3.58;;;;;;;11.99;77.38;100095.34;5070197;28;20038;-70
2023/03/23 01:45:41;;;;;;;4.03;3.58;;;;;;;12.02;77.06;100107.84;5070000;28;20033;-69
2023/03/23 01:48:23;;;;;;;5.88;4.32;;;;;;;11.99;76.76;100114.81;5071144;28;20029;-69
2023/03/23 01:50:54;;;;;;;5.85;4.20;;;;;;;12.00;76.85;100113.69;5064149;28;20028;-69
2023/03/23 01:53:22;;;;;;;5.88;4.15;;;;;;;11.99;77.26;100106.47;5056975;28;20028;-70
2023/03/23 01:55:52;;;;;;;4.60;4.10;;;;;;;12.00;76.99;100113.69;5059310;28;20042;-69
2023/03/23 01:58:22;;;;;;;5.47;4.18;;;;;;;12.01;77.10;100103.41;5067016;28;20055;-70
2023/03/23 02:00:48;;;;;;;4.28;3.85;;;;;;;12.03;76.80;100090.88;5063747;28;20025;-69
2023/03/23 02:03:16;;;;;;;7.90;4.20;;;;;;;12.04;76.70;100086.97;5049967;28;20063;-69
2023/03/23 02:05:43;;;;;;;5.38;4.20;;;;;;;12.03;76.50;100088.09;5053025;28;20075;-69
2023/03/23 02:08:10;;;;;;;7.80;4.18;;;;;;;12.02;76.96;100078.09;5067882;28;20138;-69
2023/03/23 02:10:36;;;;;;;4.85;4.15;;;;;;;12.01;76.58;100079.19;5068437;28;20032;-68
2023/03/23 02:13:04;;;;;;;5.15;4.20;;;;;;;12.02;76.84;100057.78;5065829;28;20028;-69
2023/03/23 02:15:47;;;;;;;6.95;4.18;;;;;;;12.03;76.86;100054.72;5066965;28;20041;-70
2023/03/23 02:18:26;;;;;;;4.85;3.95;;;;;;;12.03;76.61;100056.69;5057810;28;20037;-70
2023/03/23 02:21:26;;;;;;;6.05;4.43;;;;;;;12.06;76.39;100055.25;5069500;28;20056;-69
2023/03/23 02:24:21;;;;;;;5.28;3.70;;;;;;;12.04;76.49;100059.16;5039425;28;20098;-68
2023/03/23 02:26:55;;;;;;;5.15;4.00;;;;;;;12.02;76.56;100064.19;5058577;28;20029;-69
2023/03/23 02:29:46;;;;;;;5.13;3.65;;;;;;;12.06;76.69;100055.25;5052119;28;20569;-69
2023/03/23 02:32:21;;;;;;;6.15;3.90;;;;;;;12.07;75.83;100063.34;5061233;28;20075;-70
2023/03/23 02:34:53;;;;;;;5.93;3.75;;;;;;;12.10;75.93;100053.56;5068845;28;20082;-69
2023/03/23 02:37:27;;;;;;;5.85;4.40;;;;;;;12.09;76.03;100055.53;5070049;28;20391;-70
2023/03/23 02:39:58;;;;;;;6.40;4.43;;;;;;;12.08;75.83;100041.91;5068484;28;20135;-70
2023/03/23 02:42:31;;;;;;;6.10;4.20;;;;;;;12.10;75.66;100048.00;5068396;28;20074;-69
2023/03/23 02:45:03;;;;;;;4.53;3.88;;;;;;;12.08;75.89;100045.53;5062641;28;20032;-68
2023/03/23 02:47:29;;;;;;;4.32;3.40;;;;;;;12.11;75.67;100041.34;5065669;28;20116;-69
2023/03/23 02:49:58;;;;;;;7.65;4.05;;;;;;;12.12;75.19;100051.38;5066621;28;20107;-69
2023/03/23 02:52:28;;;;;;;5.35;4.10;;;;;;;12.10;75.22;100048.00;5065911;28;20021;-70
2023/03/23 02:54:59;;;;;;;5.18;4.03;;;;;;;12.09;75.54;100058.31;5056366;28;20033;-69
2023/03/23 02:57:26;;;;;;;5.60;3.70;;;;;;;12.12;75.34;100051.38;5073234;28;20036;-69
2023/03/23 02:59:51;;;;;;;4.47;3.50;;;;;;;12.12;75.36;100056.94;5070425;28;20096;-69
2023/03/23 03:02:29;;;;;;;4.53;4.00;;;;;;;12.12;75.49;100057.75;5069020;28;20088;-69
2023/03/23 03:05:09;;;;;;;4.03;3.55;;;;;;;12.16;75.33;100046.91;5050360;28;20029;-68
2023/03/23 03:08:18;;;;;;;4.45;3.55;;;;;;;12.17;75.28;100048.56;5054731;28;20036;-69
2023/03/23 03:11:07;;;;;;;4.40;3.97;;;;;;;12.16;75.42;100046.91;5065169;28;20041;-69
2023/03/23 03:13:41;;;;;;;4.85;3.60;;;;;;;12.15;75.38;100051.63;5067753;28;20032;-70
2023/03/23 03:16:24;;;;;;;4.15;3.60;;;;;;;12.17;75.54;100054.13;5068467;28;20506;-69
2023/03/23 03:18:57;;;;;;;4.43;3.60;;;;;;;12.17;75.33;100054.13;5069306;28;20040;-69
2023/03/23 03:21:27;;;;;;;5.13;3.95;;;;;;;12.15;74.87;100046.06;5053596;28;20036;-69
2023/03/23 03:23:55;;;;;;;4.55;3.80;;;;;;;12.13;75.46;100059.41;5053512;28;20472;-70
2023/03/23 03:26:26;;;;;;;4.55;3.70;;;;;;;12.14;75.32;100063.03;5057224;28;20052;-70
2023/03/23 03:28:51;;;;;;;5.88;4.10;;;;;;;12.16;75.16;100049.69;5074415;28;20065;-70
2023/03/23 03:31:19;;;;;;;3.95;3.55;;;;;;;12.15;74.87;100053.59;5074897;28;20501;-69
2023/03/23 03:33:46;;;;;;;6.60;3.65;;;;;;;12.17;74.85;100045.78;5072316;28;20044;-70
2023/03/23 03:36:18;;;;;;;5.65;3.30;;;;;;;12.17;74.63;100051.34;5060321;28;20120;-69
2023/03/23 03:38:46;;;;;;;5.47;3.30;;;;;;;12.17;74.77;100056.91;5058609;28;20037;-68
2023/03/23 03:41:13;;;;;;;7.20;3.50;;;;;;;12.18;73.99;100051.06;5054140;28;20029;-68
2023/03/23 03:43:38;;;;;;;5.97;3.78;;;;;;;12.20;74.09;100048.00;5056334;28;20056;-69
2023/03/23 03:46:07;;;;;;;5.28;3.53;;;;;;;12.19;74.38;100071.38;5070587;28;20068;-70
2023/03/23 03:48:33;;;;;;;4.35;3.38;;;;;;;12.19;74.29;100057.47;5072539;28;20023;-69
2023/03/23 03:51:00;;;;;;;4.60;3.20;;;;;;;12.21;74.04;100049.66;5071592;28;20042;-70
2023/03/23 03:53:30;;;;;;;4.50;3.55;;;;;;;12.21;74.08;100052.44;5073278;28;20029;-70
2023/03/23 03:55:56;;;;;;;6.25;3.15;;;;;;;12.21;73.64;100056.03;5072256;28;20111;-69
2023/03/23 03:58:22;;;;;;;4.85;3.15;;;;;;;12.23;73.48;100064.13;5072524;28;20104;-69
2023/03/23 04:00:49;;;;;;;7.30;3.10;;;;;;;12.23;72.97;100066.91;5065894;28;20111;-69
2023/03/23 04:03:16;;;;;;;5.15;3.13;;;;;;;12.22;72.84;100073.56;5060046;28;20412;-69
2023/03/23 04:05:42;;;;;;;4.65;2.88;;;;;;;12.22;73.39;100076.34;5070716;28;20029;-69
2023/03/23 04:08:07;;;;;;;5.75;3.00;;;;;;;12.19;72.21;100074.16;5074633;28;20028;-67
2023/03/23 04:10:33;;;;;;;6.68;3.05;;;;;;;12.21;72.85;100069.13;5074348;28;20021;-68
2023/03/23 04:12:59;;;;;;;5.88;2.88;;;;;;;12.20;72.09;100070.25;5070053;28;20029;-68
2023/03/23 04:15:25;;;;;;;5.13;2.72;;;;;;;12.16;72.00;100072.75;5065421;28;20037;-69
2023/03/23 04:17:51;;;;;;;8.35;2.90;;;;;;;12.19;72.13;100063.84;5063031;28;20028;-69
2023/03/23 04:20:19;;;;;;;8.60;2.88;;;;;;;12.21;72.46;100074.69;5067901;28;20036;-69
2023/03/23 04:22:49;;;;;;;6.30;2.78;;;;;;;12.20;72.16;100086.94;5070056;28;20025;-69
2023/03/23 04:25:20;;;;;;;8.32;3.03;;;;;;;12.23;72.24;100083.59;5071156;28;20024;-77
2023/03/23 04:27:46;;;;;;;9.63;2.80;;;;;;;12.28;72.33;100072.44;5071783;28;20357;-69
2023/03/23 04:30:13;;;;;;;6.18;2.83;;;;;;;12.28;71.43;100086.38;5072338;28;20035;-69
2023/03/23 04:32:41;;;;;;;8.95;2.60;;;;;;;12.28;71.58;100083.56;5066781;28;20025;-68
2023/03/23 04:35:10;;;;;;;6.68;2.45;;;;;;;12.26;71.08;100088.56;5070746;28;20044;-70
2023/03/23 04:37:36;;;;;;;7.22;2.22;;;;;;;12.26;71.44;100092.22;5069756;28;20070;-70
2023/03/23 04:40:06;;;;;;;6.15;2.30;;;;;;;12.27;71.50;100087.47;5070893;28;20411;-70
2023/03/23 04:42:31;;;;;;;7.82;2.17;;;;;;;12.26;71.29;100086.66;5067011;28;20097;-70
2023/03/23 04:44:59;;;;;;;8.40;2.10;;;;;;;12.26;71.54;100094.16;5071049;28;20463;-69
2023/03/23 04:47:29;;;;;;;3.15;1.80;;;;;;;12.25;71.18;100100.84;5066494;28;20047;-69
2023/03/23 04:49:57;;;;;;;10.07;2.28;;;;;;;12.25;70.60;100111.97;5060706;28;20020;-69
2023/03/23 04:52:25;;;;;;;8.10;1.90;;;;;;;12.24;71.45;100099.19;5066717;28;20032;-69
2023/03/23 04:54:51;;;;;;;9.02;2.20;;;;;;;12.26;71.01;100095.00;5070691;28;20410;-70
2023/03/23 04:57:17;;;;;;;8.35;2.00;;;;;;;12.23;70.93;100109.47;5071783;28;20094;-69
2023/03/23 04:59:43;;;;;;;6.85;1.80;;;;;;;12.22;71.03;100109.75;5071052;28;20414;-69
2023/03/23 05:02:12;;;;;;;8.45;1.88;;;;;;;12.20;71.09;100103.63;5069275;28;20040;-69
2023/03/23 05:04:38;;;;;;;8.63;2.58;;;;;;;12.21;71.41;100103.34;5063884;28;20185;-69
2023/03/23 05:07:04;;;;;;;8.52;2.35;;;;;;;12.22;71.34;100106.97;5068001;28;20482;-68
2023/03/23 05:09:29;;;;;;;7.43;2.15;;;;;;;12.22;71.23;100104.16;5060441;28;20114;-69
2023/03/23 05:11:57;;;;;;;5.40;1.98;;;;;;;12.22;71.48;100095.81;5071087;28;20052;-69
2023/03/23 05:14:23;;;;;;;5.03;2.15;;;;;;;12.19;71.49;100097.25;5059098;28;20051;-71
2023/03/23 05:16:48;;;;;;;7.18;2.00;;;;;;;12.20;71.33;100104.47;5072175;28;20028;-69
2023/03/23 05:19:16;;;;;;;6.05;1.77;;;;;;;12.18;70.69;100100.28;5072242;28;20365;-70
2023/03/23 05:21:44;;;;;;;6.18;1.80;;;;;;;12.21;71.27;100094.16;5071547;28;20043;-68
2023/03/23 05:24:09;;;;;;;6.90;2.17;;;;;;;12.18;70.89;100100.28;5067497;28;20037;-69
2023/03/23 05:26:34;;;;;;;7.63;2.10;;;;;;;12.18;70.68;100106.72;5051044;28;20368;-68
2023/03/23 05:28:59;;;;;;;7.55;2.13;;;;;;;12.18;70.94;100103.06;5067752;28;20079;-68
2023/03/23 05:31:25;;;;;;;8.25;1.80;;;;;;;12.17;70.89;100115.31;5060402;28;20036;-69
2023/03/23 05:33:51;;;;;;;6.75;2.10;;;;;;;12.16;71.00;100119.22;5070783;28;20100;-69
2023/03/23 05:36:16;;;;;;;6.55;2.10;;;;;;;12.17;70.96;100113.38;5070378;28;20071;-69
2023/03/23 05:38:45;;;;;;;7.22;2.50;;;;;;;12.17;71.60;100112.53;5068743;28;20451;-69
2023/03/23 05:41:14;;;;;;;6.50;1.88;;;;;;;12.18;71.32;100109.50;5070124;28;20483;-68
2023/03/23 05:43:40;;;;;;;7.15;2.15;;;;;;;12.17;71.66;100110.59;5069299;28;20035;-68
2023/03/23 05:46:06;;;;;;;8.05;2.28;;;;;;;12.17;71.52;100107.81;5069939;28;20044;-68
2023/03/23 05:48:32;;;;;;;7.57;2.25;;;;;;;12.14;71.88;100118.66;5067194;28;20534;-68
2023/03/23 05:50:58;;;;;;;8.93;2.20;;;;;;;12.14;71.71;100113.94;5069924;28;20028;-69
2023/03/23 05:53:23;;;;;;;8.10;2.35;;;;;;;12.15;71.94;100114.78;5071348;28;20101;-69
2023/03/23 05:55:49;;;;;;;10.05;2.63;;;;;;;12.13;72.18;100114.22;5067124;28;20480;-69
2023/03/23 05:58:15;;;;;;;9.77;2.25;;;;;;;12.12;72.03;100115.34;5055247;28;20536;-69
2023/03/23 06:00:46;;;;;;;9.15;2.42;;;;;;;12.09;72.02;100118.69;5069417;28;20048;-69
2023/03/23 06:03:11;;;;;;;6.35;2.20;;;;;;;12.11;71.91;100117.28;5071297;28;20066;-69
2023/03/23 06:05:43;;;;;;;7.32;2.90;;;;;;;12.08;72.24;100105.91;5067861;28;20024;-69
2023/03/23 06:08:09;;;;;;;11.57;2.60;;;;;;;12.06;71.90;100105.31;5068707;28;20119;-68
2023/03/23 06:10:37;;;;;;;15.15;2.60;;;;;;;12.06;72.17;100111.72;5069263;28;20150;-68
2023/03/23 06:13:04;;;;;;;7.32;2.35;;;;;;;12.05;71.93;100110.06;5070946;28;20029;-69
2023/03/23 06:15:31;;;;;;;8.75;2.35;;;;;;;12.04;72.30;100120.34;5067360;28;20404;-69
2023/03/23 06:18:03;;;;;;;8.85;2.72;;;;;;;12.08;71.86;100142.06;5056123;28;20056;-68
2023/03/23 06:20:28;;;;;;;;;;;;;;;12.20;72.18;100137.03;5069959;28;20040;-68
2023/03/23 06:22:54;;;;;;;9.73;2.75;;;;;;;12.14;71.56;100149.25;5069715;28;19989;-68
2023/03/23 06:25:19;;;;;;;9.50;2.42;;;;;;;12.15;71.18;100146.22;5071977;28;20063;-67
2023/03/23 06:27:46;;;;;;;6.30;2.50;;;;;;;12.18;71.48;100148.44;5072003;28;20497;-69
2023/03/23 06:30:14;;;;;;;11.77;2.95;;;;;;;12.17;70.90;100154.28;5069866;28;20028;-68
2023/03/23 06:32:40;;;;;;;8.02;2.42;;;;;;;12.16;70.85;100163.75;5066564;28;20039;-68
2023/03/23 06:35:09;;;;;;;12.80;2.70;;;;;;;12.18;70.63;100167.06;5068829;28;20077;-68
2023/03/23 06:37:35;;;;;;;15.00;2.78;;;;;;;12.19;70.79;100169.59;5063813;28;20781;-68
2023/03/23 06:40:00;;;;;;;9.02;2.50;;;;;;;12.21;70.78;100166.50;5060767;28;20100;-68
2023/03/23 06:42:26;;;;;;;8.48;2.28;;;;;;;12.20;70.89;100165.69;5064688;28;20142;-68
2023/03/23 06:44:52;;;;;;;6.40;2.22;;;;;;;12.22;70.26;100171.81;5069358;28;20028;-69
2023/03/23 06:47:17;;;;;;;6.75;2.22;;;;;;;12.21;70.80;100174.84;5067649;28;20020;-68
2023/03/23 06:49:43;;;;;;;7.72;2.40;;;;;;;12.21;70.51;100177.63;5052257;28;20433;-68
2023/03/23 06:52:08;;;;;;;7.38;2.08;;;;;;;12.21;70.60;100174.84;5065825;28;20024;-68
2023/03/23 06:54:33;;;;;;;7.68;2.28;;;;;;;12.24;70.37;100188.22;5051894;28;20033;-68
2023/03/23 06:56:58;;;;;;;8.52;2.33;;;;;;;12.22;70.06;100201.56;5060176;28;20041;-68
2023/03/23 06:59:24;;;;;;;12.82;2.67;;;;;;;12.20;70.79;100198.22;5064750;28;20044;-69
2023/03/23 07:01:50;;;;;;;8.77;2.55;;;;;;;12.16;70.27;100203.53;5065706;28;20156;-70
2023/03/23 07:04:16;;;;;;;6.78;2.25;;;;;;;12.14;71.57;100199.34;5052078;28;20037;-69
2023/03/23 07:06:41;;;;;;;9.23;2.90;;;;;;;12.12;71.89;100190.44;5067431;28;20040;-68
2023/03/23 07:09:07;;;;;;;6.38;2.47;;;;;;;12.11;72.18;100195.19;5065459;28;20028;-69
2023/03/23 07:11:32;;;;;;;7.82;2.50;;;;;;;12.11;73.21;100206.31;5070699;28;20048;-71
2023/03/23 07:13:58;;;;;;;9.48;2.58;;;;;;;12.08;73.73;100206.03;5060109;28;20032;-68
2023/03/23 07:16:26;;;;;;;11.73;3.03;;;;;;;12.08;74.31;100217.16;5078538;28;20429;-67
2023/03/23 07:18:51;;;;;;;6.32;2.42;;;;;;;12.07;74.63;100229.41;5072425;28;20043;-69
2023/03/23 07:21:16;;;;;;;9.45;3.00;;;;;;;12.08;75.19;100239.41;5087493;28;20021;-68
2023/03/23 07:23:42;;;;;;;8.23;2.95;;;;;;;12.07;75.71;100246.94;5077312;28;20510;-67
2023/03/23 07:26:07;;;;;;;10.27;5.15;;;;;;;12.04;76.50;100239.97;5059528;28;20496;-68
2023/03/23 07:28:33;;;;;;;9.82;3.03;;;;;;;12.07;76.46;100240.53;5063266;28;21160;-67
2023/03/23 07:30:58;;;;;;;5.65;3.15;;;;;;;12.06;76.58;100244.41;5069375;28;20024;-67
2023/03/23 07:33:23;;;;;;;11.52;3.15;;;;;;;12.02;76.93;100253.34;5066175;28;20021;-68
2023/03/23 07:35:49;;;;;;;8.50;3.10;;;;;;;12.01;77.07;100267.50;5061379;28;20065;-66
2023/03/23 07:38:14;;;;;;;8.57;2.45;;;;;;;11.96;76.46;100260.00;5059388;28;20024;-68
2023/03/23 07:40:40;;;;;;;4.93;2.00;;;;;;;11.97;74.99;100246.91;5051559;28;20472;-67
2023/03/23 07:43:06;;;;;;;4.47;1.98;;;;;;;11.93;72.88;100231.91;5053127;28;20476;-60
2023/03/23 07:45:33;;;;;;;4.45;2.63;;;;;;;11.93;72.80;100235.50;5056328;28;20029;-68
2023/03/23 07:47:58;;;;;;;6.18;2.55;;;;;;;11.86;72.79;100236.88;5058451;28;20446;-68
2023/03/23 07:50:25;;;;;;;6.88;3.25;;;;;;;11.86;73.15;100243.28;5070438;28;20476;-67
2023/03/23 07:52:53;;;;;;;6.18;2.63;;;;;;;11.84;73.42;100245.53;5060760;28;20035;-68
2023/03/23 07:55:18;;;;;;;3.65;2.05;;;;;;;11.83;73.99;100249.41;5056285;28;20060;-65
2023/03/23 07:57:47;;;;;;;3.95;2.03;;;;;;;11.83;74.64;100254.97;5062826;28;20469;-66
2023/03/23 08:00:19;;;;;;;3.47;1.80;;;;;;;11.80;74.87;100264.66;5069055;28;20504;-67
2023/03/23 08:02:48;;;;;;;4.88;2.75;;;;;;;11.81;73.85;100265.50;5068941;28;20047;-66
2023/03/23 08:05:14;;;;;;;4.88;1.90;;;;;;;11.81;74.18;100273.84;5067433;28;20438;-66
2023/03/23 08:07:40;;;;;;;4.03;1.70;;;;;;;11.75;73.91;100270.22;5067531;28;20025;-66
2023/03/23 08:10:10;;;;;;;3.97;1.60;;;;;;;11.70;73.65;100272.97;5050972;28;21049;-66
2023/03/23 08:12:36;;;;;;;4.95;2.15;;;;;;;11.71;73.71;100296.91;5054318;28;20082;-66
2023/03/23 08:15:02;;;;;;;7.85;1.90;;;;;;;11.70;73.59;100295.22;5066333;28;20032;-67
2023/03/23 08:17:28;;;;;;;2.80;1.42;;;;;;;11.72;73.37;100297.75;5055800;28;20452;-67
2023/03/23 08:19:54;;;;;;;6.57;2.40;;;;;;;11.68;73.66;100282.72;5061010;28;20148;-66
2023/03/23 08:22:19;;;;;;;3.38;1.58;;;;;;;11.69;73.50;100288.00;5066843;28;20033;-66
2023/03/23 08:24:44;;;;;;;5.10;1.52;;;;;;;11.60;73.48;100288.81;5067408;28;20115;-66
2023/03/23 08:27:10;;;;;;;2.72;1.30;;;;;;;11.65;73.52;100289.66;5063027;28;20546;-66
2023/03/23 08:29:35;;;;;;;4.65;1.67;;;;;;;11.68;73.53;100291.88;5070439;28;20549;-66
2023/03/23 08:32:02;;;;;;;3.63;1.45;;;;;;;11.66;73.61;100287.69;5068176;28;20151;-65
2023/03/23 08:34:28;;;;;;;4.03;1.48;;;;;;;11.65;73.50;100277.69;5063082;28;20149;-65
2023/03/23 08:36:54;;;;;;;4.68;1.50;;;;;;;11.65;73.60;100278.53;5058750;28;20096;-66
2023/03/23 08:39:22;;;;;;;3.95;1.40;;;;;;;11.66;73.22;100280.19;5068261;28;20040;-66
2023/03/23 08:41:48;;;;;;;5.90;1.45;;;;;;;11.67;73.69;100278.25;5066282;28;20032;-65
2023/03/23 08:44:13;;;;;;;3.67;1.40;;;;;;;11.66;73.41;100282.16;5066273;28;20036;-65
2023/03/23 08:46:39;;;;;;;4.30;1.52;;;;;;;11.68;73.45;100291.88;5055575;28;20033;-65
2023/03/23 08:49:05;;;;;;;5.57;1.50;;;;;;;11.69;73.45;100290.78;5049827;28;20025;-65
2023/03/23 08:51:31;;;;;;;7.47;3.78;;;;;;;11.68;72.89;100293.84;5054063;28;21037;-65
2023/03/23 08:53:56;;;;;;;7.35;4.32;;;;;;;11.68;73.53;100296.63;5066294;28;20036;-64
2023/03/23 08:56:22;;;;;;;10.45;5.07;;;;;;;11.65;74.08;100288.81;5054123;28;20479;-65
2023/03/23 08:58:48;;;;;;;6.82;3.58;;;;;;;11.68;74.16;100296.63;5057472;28;20498;-64
2023/03/23 09:01:14;;;;;;;7.80;3.33;;;;;;;11.69;73.83;100295.50;5055689;28;20025;-63
2023/03/23 09:03:40;;;;;;;9.85;4.97;;;;;;;11.63;74.12;100304.94;5063016;28;20044;-63
2023/03/23 09:06:07;;;;;;;5.97;3.10;;;;;;;11.67;73.89;100311.59;5066273;28;20027;-64
2023/03/23 09:08:35;;;;;;;5.78;3.17;;;;;;;11.70;74.32;100294.38;5069326;28;20124;-60
2023/03/23 09:11:03;;;;;;;6.78;2.22;;;;;;;11.70;74.00;100278.53;5051952;28;20098;-64
2023/03/23 09:13:28;;;;;;;6.60;2.00;;;;;;;11.82;74.68;100281.06;5050537;28;20037;-65
2023/03/23 09:15:54;;;;;;;7.30;1.80;;;;;;;11.92;74.21;100283.91;5063358;28;20052;-65
2023/03/23 09:18:19;;;;;;;2.60;1.38;;;;;;;11.97;74.58;100296.97;5064581;28;20387;-63
2023/03/23 09:20:45;;;;;;;4.72;1.40;;;;;;;12.01;74.04;100298.91;5069047;28;20387;-65
2023/03/23 09:23:12;;;;;;;4.35;1.40;;;;;;;12.06;73.57;100302.81;5067430;28;20059;-64
2023/03/23 09:25:38;;;;;;;4.43;1.52;;;;;;;12.00;73.32;100310.34;5069376;28;20021;-65
2023/03/23 09:28:04;;;;;;;4.70;1.67;;;;;;;12.01;73.75;100292.53;5068615;28;20039;-64
2023/03/23 09:30:32;;;;;;;4.72;1.60;;;;;;;11.93;72.97;100302.25;5066832;28;20569;-64
2023/03/23 09:33:00;;;;;;;5.10;1.67;;;;;;;11.81;73.31;100293.31;5068772;28;20016;-64
2023/03/23 09:35:27;;;;;;;4.80;1.55;;;;;;;11.83;73.21;100293.91;5065291;28;20048;-65
2023/03/23 09:37:52;;;;;;;3.08;1.48;;;;;;;11.85;73.99;100296.41;5069622;28;20021;-65
2023/03/23 09:40:24;;;;;;;2.80;1.38;;;;;;;11.86;74.03;100303.63;5058003;28;20033;-66
2023/03/23 09:42:56;;;;;;;4.82;1.50;;;;;;;11.98;73.83;100307.81;5049970;28;20261;-63
2023/03/23 09:45:29;;;;;;;3.60;1.48;;;;;;;12.09;74.19;100307.84;5063690;28;20038;-64
2023/03/23 09:47:54;;;;;;;7.05;1.80;;;;;;;12.22;73.81;100304.50;5069030;28;20043;-67
2023/03/23 09:50:26;;;;;;;3.63;1.42;;;;;;;12.32;72.91;100312.03;5068583;28;20028;-66
2023/03/23 09:52:58;;;;;;;4.45;1.60;;;;;;;12.44;72.59;100309.81;5066690;28;20364;-66
2023/03/23 09:55:24;;;;;;;5.40;1.60;;;;;;;12.58;72.71;100298.94;5067145;28;20401;-67
2023/03/23 09:57:52;;;;;;;4.78;1.83;;;;;;;12.78;72.72;100307.28;5068140;28;20033;-66
2023/03/23 10:00:26;;;;;;;4.00;1.58;;;;;;;12.99;72.55;100306.09;5082961;28;20028;-67
2023/03/23 10:03:02;;;;;;;2.67;1.58;;;;;;;13.13;71.06;100311.09;5088829;28;20036;-67
2023/03/23 10:05:36;;;;;;;4.88;1.85;;;;;;;13.21;70.94;100310.50;5089837;28;20073;-67
2023/03/23 10:08:12;;;;;;;3.20;1.50;;;;;;;13.29;70.72;100309.94;5077057;28;21652;-65
2023/03/23 10:11:04;;;;;;;4.22;1.70;;;;;;;13.49;72.18;100311.81;5066245;28;20107;-66
2023/03/23 10:14:04;;;;;;;6.63;2.08;;;;;;;13.64;71.53;100322.06;5067106;28;20514;-67
2023/03/23 10:16:36;;;;;;;5.85;1.90;;;;;;;13.73;69.34;100320.34;5068232;28;20049;-65
2023/03/23 10:19:25;;;;;;;2.70;1.65;;;;;;;13.88;70.53;100311.06;5069897;28;20033;-67
2023/03/23 10:21:54;;;;;;;3.35;1.60;;;;;;;13.95;68.69;100323.56;5069644;28;20032;-67
2023/03/23 10:24:25;;;;;;;4.95;1.90;;;;;;;13.97;67.23;100326.06;5067552;28;20040;-66
2023/03/23 10:27:13;;;;;;;4.97;1.85;;;;;;;14.05;67.47;100322.66;5059395;28;20021;-66
2023/03/23 10:30:14;;;;;;;8.23;2.33;;;;;;;14.12;69.30;100337.13;5067802;28;20124;-67
2023/03/23 10:32:45;;;;;;;7.13;2.17;;;;;;;14.03;67.99;100332.44;5049334;28;20060;-67
2023/03/23 10:35:17;;;;;;;5.47;2.20;;;;;;;14.00;68.38;100334.69;5049103;28;20029;-67
2023/03/23 10:38:05;;;;;;;3.45;1.70;;;;;;;14.09;68.68;100334.06;5048447;28;20550;-67
2023/03/23 10:40:33;;;;;;;5.40;1.90;;;;;;;14.12;67.74;100330.72;5059149;28;20494;-65
2023/03/23 10:42:58;;;;;;;6.80;2.10;;;;;;;14.13;68.08;100329.56;5063614;28;20021;-67
2023/03/23 10:45:29;;;;;;;6.43;2.28;;;;;;;14.09;67.77;100343.28;5061991;28;20055;-66
2023/03/23 10:48:12;;;;;;;3.95;1.98;;;;;;;14.10;67.35;100330.16;5068835;28;20025;-67
2023/03/23 10:50:39;;;;;;;10.32;2.22;;;;;;;14.17;68.11;100323.13;5067050;28;20188;-66
2023/03/23 10:53:37;;;;;;;4.45;2.05;;;;;;;14.24;68.19;100320.84;5047914;28;20033;-66
2023/03/23 10:56:03;;;;;;;5.18;2.25;;;;;;;14.32;67.13;100330.56;5080435;28;20036;-65
2023/03/23 10:58:35;;;;;;;6.72;1.98;;;;;;;14.41;67.48;100330.75;5078806;28;20033;-67
2023/03/23 11:01:03;;;;;;;4.82;2.05;;;;;;;14.47;66.82;100322.06;5064996;28;20085;-66
2023/03/23 11:03:40;;;;;;;5.65;1.98;;;;;;;14.44;66.69;100322.63;5067380;28;20021;-65
2023/03/23 11:06:18;;;;;;;6.82;2.55;;;;;;;14.42;65.79;100332.41;5062552;28;20082;-66
2023/03/23 11:09:03;;;;;;;7.03;1.92;;;;;;;14.38;66.63;100331.34;5064941;28;20050;-67
2023/03/23 11:11:36;;;;;;;4.47;1.85;;;;;;;14.41;65.98;100319.59;5068734;28;20048;-66
2023/03/23 11:14:31;;;;;;;7.95;2.08;;;;;;;14.46;66.65;100306.44;5061746;28;20164;-65
2023/03/23 11:17:00;;;;;;;7.55;2.13;;;;;;;14.48;65.02;100320.94;5050071;28;20041;-66
2023/03/23 11:19:35;;;;;;;7.38;1.67;;;;;;;14.52;64.62;100325.97;5048187;28;20076;-65
2023/03/23 11:22:28;;;;;;;5.55;1.80;;;;;;;14.54;65.48;100323.69;5049400;28;20116;-65
2023/03/23 11:24:56;;;;;;;7.47;2.03;;;;;;;14.55;65.04;100330.97;5055489;28;20048;-65
2023/03/23 11:27:23;;;;;;;5.70;1.70;;;;;;;14.60;63.46;100328.13;5054488;28;20098;-66
2023/03/23 11:29:55;;;;;;;5.80;1.65;;;;;;;14.58;62.65;100335.94;5071775;28;20025;-65
2023/03/23 11:32:27;;;;;;;6.35;1.77;;;;;;;14.54;62.40;100329.28;5056993;28;20064;-65